Time;durP1;ratioP1;P1;durP2;ratioP2;P2;SDS_P1;SDS_P2;PMS_P1;PMS_P2;Temp;Humidity;BMP_temperature;BMP_pressure;BME280_temperature;BME280_humidity;BME280_pressure;Samples;Min_cycle;Max_cycle;Signal;HPM_P1;HPM_P2
2021/11/09 00:01:51;;;;;;;132.20;51.28;;;;;;;11.22;100.00;100788.69;5030098;28;20022;-70
2021/11/09 00:04:17;;;;;;;102.18;42.60;;;;;;;11.71;100.00;100882.81;5027904;28;20076;-71
2021/11/09 00:06:48;;;;;;;94.43;37.58;;;;;;;11.65;100.00;100880.88;5029739;28;20018;-69
2021/11/09 00:09:17;;;;;;;97.55;36.63;;;;;;;11.43;100.00;100827.44;5026359;28;20480;-69
2021/11/09 00:11:43;;;;;;;86.95;35.90;;;;;;;11.59;100.00;100851.28;5028470;28;20113;-70
2021/11/09 00:14:10;;;;;;;72.50;34.42;;;;;;;11.71;100.00;100867.28;5027568;28;20145;-73
2021/11/09 00:16:35;;;;;;;97.93;35.28;;;;;;;11.79;100.00;100872.78;5028754;28;20025;-72
2021/11/09 00:19:02;;;;;;;82.15;36.17;;;;;;;11.68;100.00;100851.66;5028750;28;20026;-71
2021/11/09 00:21:28;;;;;;;80.28;33.58;;;;;;;11.82;100.00;100868.59;5029315;28;20026;-72
2021/11/09 00:23:55;;;;;;;76.88;35.03;;;;;;;11.09;100.00;100739.94;5028404;28;20029;-71
2021/11/09 00:26:40;;;;;;;77.97;37.85;;;;;;;12.00;100.00;100877.91;4988266;28;20038;-71
2021/11/09 00:29:05;;;;;;;80.45;38.03;;;;;;;12.05;100.00;100872.91;4988196;28;20421;-69
2021/11/09 00:31:31;;;;;;;82.28;38.70;;;;;;;12.17;100.00;100882.84;4988447;28;20034;-69
2021/11/09 00:33:56;;;;;;;79.57;37.72;;;;;;;12.08;100.00;100857.50;4989550;28;20039;-70
2021/11/09 00:36:23;;;;;;;81.35;36.78;;;;;;;12.23;100.00;100877.88;4992034;28;20038;-72
2021/11/09 00:38:48;;;;;;;77.47;38.28;;;;;;;12.17;100.00;100877.66;4991836;28;20033;-69
2021/11/09 00:41:14;;;;;;;81.43;38.15;;;;;;;12.29;100.00;100902.28;4988708;28;20034;-70
2021/11/09 00:43:39;;;;;;;75.57;35.47;;;;;;;11.82;100.00;100822.03;4991702;28;20080;-69
2021/11/09 00:46:05;;;;;;;77.28;36.47;;;;;;;12.29;100.00;100897.09;4984861;28;20077;-73
2021/11/09 00:48:30;;;;;;;74.88;36.50;;;;;;;12.21;100.00;100895.06;4984700;28;20162;-71
2021/11/09 00:50:56;;;;;;;75.75;39.35;;;;;;;12.28;100.00;100915.19;4991380;28;20477;-70
2021/11/09 00:53:22;;;;;;;74.60;36.95;;;;;;;12.21;100.00;100900.22;4985502;28;20512;-74
2021/11/09 00:55:47;;;;;;;73.78;38.40;;;;;;;12.04;100.00;100873.75;4990309;28;20034;-71
2021/11/09 00:58:14;;;;;;;70.30;38.72;;;;;;;12.26;100.00;100903.88;5014083;28;20048;-71
2021/11/09 01:00:40;;;;;;;74.03;39.80;;;;;;;12.17;100.00;100890.59;5027935;28;20028;-70
2021/11/09 01:03:08;;;;;;;75.60;39.25;;;;;;;12.27;100.00;100901.38;5017141;28;20470;-72
2021/11/09 01:05:35;;;;;;;66.47;36.65;;;;;;;12.36;100.00;100900.81;5017896;28;20042;-73
2021/11/09 01:08:04;;;;;;;71.15;37.28;;;;;;;12.29;100.00;100883.28;5016436;28;20033;-74
2021/11/09 01:10:33;;;;;;;70.57;38.03;;;;;;;12.43;100.00;100904.50;5014739;28;20022;-71
2021/11/09 01:12:59;;;;;;;72.88;36.72;;;;;;;12.28;100.00;100874.63;5022430;28;20033;-71
2021/11/09 01:15:27;;;;;;;74.35;37.10;;;;;;;12.42;100.00;100906.22;4990697;28;20085;-73
2021/11/09 01:17:54;;;;;;;68.80;35.97;;;;;;;12.29;100.00;100898.81;4992144;28;20133;-74
2021/11/09 01:20:22;;;;;;;75.78;36.28;;;;;;;11.92;100.00;100838.75;4990808;28;20043;-72
2021/11/09 01:22:51;;;;;;;73.80;36.53;;;;;;;12.20;100.00;100906.22;4989744;28;20049;-73
2021/11/09 01:25:18;;;;;;;76.38;35.35;;;;;;;12.17;100.00;100911.31;4992037;28;20035;-74
2021/11/09 01:27:43;;;;;;;95.18;37.17;;;;;;;12.12;100.00;100913.72;4992136;28;20133;-75
2021/11/09 01:30:11;;;;;;;91.85;36.67;;;;;;;12.03;100.00;100906.50;4990598;28;20156;-70
2021/11/09 01:32:37;;;;;;;98.82;36.22;;;;;;;11.94;100.00;100900.94;5009363;28;20034;-71
2021/11/09 01:35:04;;;;;;;88.93;35.95;;;;;;;11.78;100.00;100886.53;5010206;28;20101;-74
2021/11/09 01:37:30;;;;;;;90.53;37.65;;;;;;;11.92;100.00;100900.84;4993914;28;20033;-72
2021/11/09 01:39:55;;;;;;;116.65;37.75;;;;;;;11.95;100.00;100898.41;5010388;28;20519;-71
2021/11/09 01:42:22;;;;;;;93.70;36.33;;;;;;;11.92;100.00;100898.28;5010282;28;20038;-71
2021/11/09 01:44:48;;;;;;;107.25;37.47;;;;;;;11.79;100.00;100883.13;5009302;28;20034;-75
2021/11/09 01:47:15;;;;;;;105.55;35.90;;;;;;;11.46;100.00;100858.59;5028725;28;20045;-71
2021/11/09 01:49:40;;;;;;;102.47;35.42;;;;;;;11.28;100.00;100834.59;5032358;28;20112;-71
2021/11/09 01:52:06;;;;;;;95.10;30.98;;;;;;;11.27;100.00;100853.50;5032500;28;20129;-72
2021/11/09 01:54:32;;;;;;;100.05;33.38;;;;;;;11.49;100.00;100915.59;5032144;28;20029;-70
2021/11/09 01:56:57;;;;;;;99.57;33.90;;;;;;;11.15;100.00;100865.13;5032420;28;20028;-71
2021/11/09 01:59:23;;;;;;;103.88;32.75;;;;;;;11.34;100.00;100902.03;5032320;28;20116;-71
2021/11/09 02:01:48;;;;;;;96.60;32.58;;;;;;;11.20;100.00;100891.13;5032539;28;20392;-70
2021/11/09 02:04:14;;;;;;;96.05;34.95;;;;;;;11.23;100.00;100899.00;5032136;28;20083;-72
2021/11/09 02:06:40;;;;;;;100.13;33.67;;;;;;;11.17;100.00;100902.22;5032067;28;20025;-70
2021/11/09 02:09:13;;;;;;;98.25;34.53;;;;;;;10.87;100.00;100833.78;5032088;28;20017;-71
2021/11/09 02:11:39;;;;;;;112.05;34.30;;;;;;;11.28;100.00;100919.88;5028231;28;20025;-72
2021/11/09 02:14:05;;;;;;;90.90;34.92;;;;;;;11.00;100.00;100888.63;5031580;28;20025;-70
2021/11/09 02:16:32;;;;;;;98.38;37.05;;;;;;;11.16;100.00;100910.81;5032029;28;20086;-70
2021/11/09 02:18:59;;;;;;;103.47;34.15;;;;;;;10.84;100.00;100863.84;4993936;28;20041;-71
2021/11/09 02:21:25;;;;;;;125.25;34.20;;;;;;;11.11;100.00;100911.44;5012965;28;20030;-71
2021/11/09 02:23:50;;;;;;;106.53;33.92;;;;;;;11.10;100.00;100907.06;5028070;28;20018;-72
2021/11/09 02:26:21;;;;;;;82.85;33.30;;;;;;;11.13;100.00;100923.59;5025697;28;20038;-73
2021/11/09 02:28:49;;;;;;;82.68;34.15;;;;;;;11.16;100.00;100917.66;5011373;28;20041;-75
2021/11/09 02:31:15;;;;;;;75.15;33.72;;;;;;;11.12;100.00;100915.78;5001080;28;20045;-71
2021/11/09 02:33:41;;;;;;;83.28;32.72;;;;;;;10.94;100.00;100872.84;5029841;28;20030;-72
2021/11/09 02:36:07;;;;;;;89.13;32.33;;;;;;;11.16;100.00;100913.41;5012982;28;20443;-71
2021/11/09 02:38:33;;;;;;;82.55;32.38;;;;;;;11.17;100.00;100911.69;5017913;28;20029;-74
2021/11/09 02:40:59;;;;;;;80.85;34.58;;;;;;;10.90;100.00;100859.75;5014048;28;20395;-74
2021/11/09 02:43:26;;;;;;;91.95;35.03;;;;;;;11.15;100.00;100887.47;5010449;28;20400;-73
2021/11/09 02:48:37;;;;;;;103.70;33.10;;;;;;;11.37;100.00;100907.31;5014510;28;20045;-74
2021/11/09 02:51:17;;;;;;;101.65;33.38;;;;;;;11.49;100.00;100918.16;5014162;28;20037;-74
2021/11/09 02:53:46;;;;;;;;;;;;;;;11.36;100.00;100927.94;5022355;28;20026;-75
2021/11/09 02:56:25;;;;;;;94.75;32.58;;;;;;;11.32;100.00;100926.94;5025174;28;19920;-73
2021/11/09 03:01:27;;;;;;;105.45;37.20;;;;;;;11.35;100.00;100945.16;5012158;28;20075;-74
2021/11/09 03:04:24;;;;;;;103.18;37.50;;;;;;;10.86;100.00;100873.34;5010629;28;20034;-78
2021/11/09 03:06:55;;;;;;;123.63;37.90;;;;;;;10.83;100.00;100876.69;5014194;28;20034;-73
2021/11/09 03:09:47;;;;;;;114.68;35.92;;;;;;;11.20;100.00;100955.72;5007583;28;20030;-74
2021/11/09 03:12:13;;;;;;;126.43;37.95;;;;;;;11.16;100.00;100954.75;5013637;28;20022;-74
2021/11/09 03:14:39;;;;;;;126.55;36.88;;;;;;;11.21;100.00;100957.50;5011737;28;20036;-74
2021/11/09 03:17:22;;;;;;;103.13;37.38;;;;;;;11.16;100.00;100972.84;4993525;28;20442;-73
2021/11/09 03:19:53;;;;;;;100.82;35.13;;;;;;;11.15;100.00;100949.50;5020510;28;20053;-75
2021/11/09 03:44:31;;;;;;;112.60;39.67;;;;;;;11.17;100.00;100977.16;5030973;28;20080;-71
2021/11/09 03:47:02;;;;;;;121.05;39.78;;;;;;;11.15;100.00;100990.84;5031012;28;20033;-71
2021/11/09 03:49:31;;;;;;;107.25;37.60;;;;;;;10.65;100.00;100905.16;5031036;28;20101;-72
2021/11/09 03:51:58;;;;;;;107.95;38.20;;;;;;;11.12;100.00;100982.97;5031237;28;20025;-71
2021/11/09 03:54:31;;;;;;;97.57;39.85;;;;;;;11.11;100.00;100989.81;5030613;28;20510;-71
2021/11/09 03:57:08;;;;;;;104.32;38.03;;;;;;;11.14;100.00;101002.88;5030797;28;20412;-72
2021/11/09 04:07:13;;;;;;;113.43;40.42;;;;;;;10.59;100.00;100965.19;5031157;28;20038;-71
2021/11/09 05:01:17;;;;;;;80.90;35.78;;;;;;;10.61;100.00;101107.25;4915419;29;20415;-72
2021/11/09 05:09:37;;;;;;;71.82;33.80;;;;;;;10.48;100.00;101105.78;4953022;29;20038;-73
2021/11/09 05:12:03;;;;;;;79.65;35.08;;;;;;;10.58;100.00;101117.44;4952955;29;20044;-71
2021/11/09 05:14:30;;;;;;;70.72;34.92;;;;;;;9.78;100.00;100968.31;4952358;29;20043;-72
2021/11/09 05:16:55;;;;;;;67.75;34.10;;;;;;;10.65;100.00;101116.91;4952733;29;20060;-72
2021/11/09 05:19:21;;;;;;;74.93;34.50;;;;;;;10.45;100.00;101080.69;4952634;28;20055;-74
2021/11/09 05:21:46;;;;;;;65.63;32.15;;;;;;;10.26;100.00;101042.78;4953064;29;20058;-72
2021/11/09 05:24:12;;;;;;;64.82;31.40;;;;;;;10.59;100.00;101095.97;4952986;28;20039;-72
2021/11/09 05:26:41;;;;;;;64.70;31.98;;;;;;;10.71;100.00;101106.88;4970664;28;20047;-72
2021/11/09 05:29:07;;;;;;;63.40;32.03;;;;;;;10.09;100.00;100992.97;4966256;28;20043;-74
2021/11/09 05:31:33;;;;;;;65.90;34.13;;;;;;;10.70;100.00;101087.03;4963537;28;20461;-73
2021/11/09 05:33:59;;;;;;;69.97;33.05;;;;;;;10.75;100.00;101095.84;4961765;28;20038;-72
2021/11/09 05:36:36;;;;;;;77.95;37.72;;;;;;;10.62;100.00;101068.59;4963139;28;20470;-72
2021/11/09 05:41:40;;;;;;;77.55;38.03;;;;;;;10.68;100.00;101101.56;5013122;28;20034;-72
2021/11/09 05:44:07;;;;;;;59.58;32.72;;;;;;;10.78;100.00;101123.53;4994657;28;20100;-72
2021/11/09 05:46:34;;;;;;;71.63;32.47;;;;;;;10.83;100.00;101143.59;5012874;28;20092;-72
2021/11/09 05:48:59;;;;;;;58.38;31.65;;;;;;;10.75;100.00;101154.38;5017859;28;20088;-71
2021/11/09 05:51:25;;;;;;;63.05;33.40;;;;;;;10.88;100.00;101169.66;4995007;28;20046;-72
2021/11/09 05:53:50;;;;;;;61.83;32.67;;;;;;;10.88;100.00;101182.56;5025282;28;20029;-71
2021/11/09 05:56:16;;;;;;;63.03;32.58;;;;;;;10.55;100.00;101125.91;5031459;28;20399;-73
2021/11/09 05:58:41;;;;;;;61.90;30.42;;;;;;;10.92;100.00;101175.84;5032126;28;20482;-74
2021/11/09 06:01:07;;;;;;;67.18;31.60;;;;;;;10.87;100.00;101167.88;5032580;28;20463;-75
2021/11/09 06:03:32;;;;;;;64.35;32.60;;;;;;;10.81;100.00;101176.22;5032844;28;20033;-74
2021/11/09 06:05:58;;;;;;;66.25;33.80;;;;;;;10.45;100.00;101116.84;5032767;28;20518;-74
2021/11/09 06:08:23;;;;;;;59.20;31.17;;;;;;;10.31;100.00;101092.06;5032080;28;20029;-74
2021/11/09 06:10:49;;;;;;;64.93;34.63;;;;;;;10.80;100.00;101182.22;5032111;28;20033;-74
2021/11/09 06:13:15;;;;;;;68.68;35.55;;;;;;;10.74;100.00;101200.00;5032418;28;20025;-74
2021/11/09 06:15:41;;;;;;;68.97;35.63;;;;;;;10.57;100.00;101163.03;5031834;28;20044;-74
2021/11/09 06:18:07;;;;;;;92.75;38.92;;;;;;;10.56;100.00;101175.88;5031736;28;20040;-74
2021/11/09 06:20:33;;;;;;;79.10;38.75;;;;;;;10.66;100.00;101194.44;5032146;28;20033;-74
2021/11/09 06:22:59;;;;;;;84.53;39.17;;;;;;;10.64;100.00;101214.16;5031719;28;20111;-74
2021/11/09 06:25:24;;;;;;;78.70;36.97;;;;;;;10.43;100.00;101180.44;5031891;28;20040;-74
2021/11/09 06:27:51;;;;;;;70.30;36.17;;;;;;;10.81;100.00;101222.72;5031801;28;20060;-74
2021/11/09 06:30:17;;;;;;;69.78;35.78;;;;;;;10.72;100.00;101199.03;5031868;28;20021;-74
2021/11/09 06:32:43;;;;;;;75.20;36.72;;;;;;;10.89;100.00;101207.59;5031257;28;20040;-74
2021/11/09 06:35:09;;;;;;;71.53;34.90;;;;;;;10.61;100.00;101149.44;5031661;28;20030;-74
2021/11/09 06:37:35;;;;;;;65.55;35.03;;;;;;;11.04;100.00;101206.53;5031838;28;20108;-74
2021/11/09 06:40:02;;;;;;;69.78;35.45;;;;;;;11.11;100.00;101195.69;5013284;28;20184;-74
2021/11/09 06:42:28;;;;;;;75.40;35.30;;;;;;;11.19;100.00;101188.28;5031508;28;20033;-75
2021/11/09 06:44:53;;;;;;;62.08;34.38;;;;;;;11.28;100.00;101180.94;5031373;28;20476;-75
2021/11/09 06:47:19;;;;;;;67.40;36.03;;;;;;;11.35;100.00;101197.63;5031855;28;20480;-75
2021/11/09 06:49:44;;;;;;;63.70;34.88;;;;;;;11.23;100.00;101157.47;5031838;28;20021;-72
2021/11/09 06:52:10;;;;;;;69.32;34.05;;;;;;;11.44;100.00;101178.22;5031601;28;20040;-74
2021/11/09 06:54:36;;;;;;;64.45;33.97;;;;;;;11.47;100.00;101180.06;5031292;28;20539;-72
2021/11/09 06:57:03;;;;;;;59.80;32.90;;;;;;;11.39;100.00;101174.56;5030799;28;20033;-74
2021/11/09 06:59:29;;;;;;;59.33;33.58;;;;;;;11.53;100.00;101185.53;5031403;28;20025;-74
2021/11/09 07:01:55;;;;;;;58.55;33.88;;;;;;;11.55;100.00;101176.13;5031646;28;20032;-74
2021/11/09 07:04:21;;;;;;;67.13;35.72;;;;;;;11.60;100.00;101174.63;5031128;28;20040;-73
2021/11/09 07:06:46;;;;;;;61.38;33.97;;;;;;;11.74;100.00;101188.16;5030780;28;20419;-74
2021/11/09 07:09:13;;;;;;;66.90;34.45;;;;;;;11.49;100.00;101130.19;5031436;28;20029;-74
2021/11/09 07:11:39;;;;;;;66.65;37.42;;;;;;;11.73;100.00;101154.47;5031221;28;20037;-73
2021/11/09 07:14:06;;;;;;;73.53;37.97;;;;;;;11.87;100.00;101173.19;5031239;28;20033;-73
2021/11/09 07:16:31;;;;;;;64.10;37.25;;;;;;;11.96;100.00;101183.94;5029946;28;20029;-74
2021/11/09 07:19:02;;;;;;;67.13;35.53;;;;;;;11.98;100.00;101184.91;5031147;28;20114;-75
2021/11/09 07:21:28;;;;;;;70.07;37.22;;;;;;;11.98;100.00;101178.00;5030843;28;20052;-74
2021/11/09 07:23:54;;;;;;;65.05;36.35;;;;;;;11.96;100.00;101168.41;5013492;28;20021;-74
2021/11/09 07:26:21;;;;;;;68.68;37.80;;;;;;;12.07;100.00;101182.69;5030776;28;20025;-74
2021/11/09 07:28:47;;;;;;;59.08;34.80;;;;;;;12.16;100.00;101191.69;5012394;28;20041;-74
2021/11/09 07:31:15;;;;;;;64.32;36.03;;;;;;;12.03;100.00;101175.63;5031306;28;20031;-73
2021/11/09 07:33:41;;;;;;;61.40;35.63;;;;;;;12.20;100.00;101183.22;5031255;28;20614;-73
2021/11/09 07:36:07;;;;;;;62.03;34.47;;;;;;;12.12;100.00;101183.78;5030931;28;20026;-73
2021/11/09 07:38:32;;;;;;;68.30;36.90;;;;;;;11.82;100.00;101108.28;5031053;28;20494;-73
2021/11/09 07:40:58;;;;;;;66.43;38.13;;;;;;;11.88;100.00;101111.13;5030511;28;20026;-74
2021/11/09 07:43:24;;;;;;;64.07;37.85;;;;;;;12.39;100.00;101184.88;5031746;28;20045;-74
2021/11/09 07:45:49;;;;;;;69.18;42.38;;;;;;;12.39;100.00;101188.34;5034958;28;20029;-74
2021/11/09 07:48:15;;;;;;;68.80;39.30;;;;;;;12.37;100.00;101166.66;5034996;28;20107;-75
2021/11/09 07:50:41;;;;;;;72.85;46.72;;;;;;;11.93;100.00;101090.66;5035241;28;20101;-74
2021/11/09 07:53:12;;;;;;;61.40;39.15;;;;;;;12.57;100.00;101193.41;5034745;28;20018;-74
2021/11/09 07:55:47;;;;;;;60.40;36.47;;;;;;;12.43;100.00;101195.41;5034924;28;20068;-74
2021/11/09 07:58:18;;;;;;;67.82;38.58;;;;;;;12.00;100.00;101126.34;5034850;28;20064;-73
2021/11/09 08:00:47;;;;;;;76.93;39.45;;;;;;;12.49;100.00;101204.28;5034877;28;20071;-74
2021/11/09 08:03:34;;;;;;;;;;;;;;;12.22;100.00;101216.09;5018237;28;20021;-74
2021/11/09 08:08:40;;;;;;;81.03;41.15;;;;;;;12.11;100.00;101214.75;4973684;28;20043;-73
2021/11/09 08:11:05;;;;;;;78.47;42.33;;;;;;;12.24;100.00;101226.56;4973403;28;20046;-73
2021/11/09 08:13:31;;;;;;;75.40;44.42;;;;;;;11.67;100.00;101113.69;4973392;28;20030;-74
2021/11/09 08:15:56;;;;;;;74.55;45.03;;;;;;;12.03;100.00;101161.81;4973240;28;20066;-73
2021/11/09 08:18:22;;;;;;;74.88;43.20;;;;;;;12.29;100.00;101199.16;4973117;28;20061;-74
2021/11/09 08:20:47;;;;;;;66.85;40.72;;;;;;;12.27;100.00;101190.41;4972709;28;20524;-74
2021/11/09 08:23:13;;;;;;;64.93;39.35;;;;;;;12.41;100.00;101212.59;4973075;28;20043;-74
2021/11/09 08:25:39;;;;;;;59.85;37.95;;;;;;;12.25;100.00;101197.22;4973114;28;20109;-72
2021/11/09 08:28:04;;;;;;;69.90;39.95;;;;;;;12.29;100.00;101217.25;4973040;28;20042;-70
2021/11/09 08:30:31;;;;;;;64.13;38.40;;;;;;;12.31;100.00;101225.97;4972903;28;20113;-70
2021/11/09 08:36:29;;;;;;;58.97;36.28;;;;;;;12.43;100.00;101238.56;4983493;28;20056;-71
2021/11/09 08:39:01;;;;;;;58.13;37.97;;;;;;;12.51;100.00;101231.09;5033848;28;20025;-71
2021/11/09 08:41:27;;;;;;;65.63;40.88;;;;;;;12.58;100.00;101223.63;5033975;28;20022;-74
2021/11/09 08:44:12;;;;;;;66.80;37.80;;;;;;;12.24;100.00;101172.19;5034045;28;20056;-74
2021/11/09 08:46:49;;;;;;;57.65;36.50;;;;;;;12.51;100.00;101211.28;5033780;28;20029;-73
2021/11/09 08:49:16;;;;;;;55.35;36.05;;;;;;;12.60;100.00;101227.19;5027028;28;20029;-73
2021/11/09 08:51:43;;;;;;;57.10;37.05;;;;;;;12.64;100.00;101217.81;5033356;28;20619;-74
2021/11/09 08:54:16;;;;;;;61.58;38.38;;;;;;;12.67;100.00;101209.28;5032226;28;20507;-74
2021/11/09 09:04:55;;;;;;;61.13;37.08;;;;;;;12.92;100.00;101212.03;5032095;28;20044;-74
2021/11/09 09:07:28;;;;;;;68.72;37.75;;;;;;;12.92;100.00;101214.63;5032996;28;20021;-72
2021/11/09 09:09:56;;;;;;;56.10;34.70;;;;;;;12.99;100.00;101225.25;5032947;28;20048;-75
2021/11/09 09:12:27;;;;;;;63.25;37.97;;;;;;;13.01;100.00;101227.06;5030775;28;20458;-74
2021/11/09 09:14:54;;;;;;;64.43;39.08;;;;;;;13.02;100.00;101218.47;5033369;28;20014;-72
2021/11/09 09:17:25;;;;;;;63.95;39.20;;;;;;;13.05;100.00;101216.00;5024037;28;20033;-71
2021/11/09 09:19:58;;;;;;;67.43;38.92;;;;;;;13.07;100.00;101214.34;5023508;28;20091;-72
2021/11/09 09:22:46;;;;;;;58.78;38.00;;;;;;;13.01;100.00;101205.44;5023766;28;20041;-73
2021/11/09 09:28:19;;;;;;;62.33;39.08;;;;;;;13.05;100.00;101231.53;5030740;28;20056;-73
2021/11/09 09:30:55;;;;;;;56.90;37.13;;;;;;;12.79;100.00;101184.75;5023951;28;20090;-73
2021/11/09 09:52:38;;;;;;;58.22;36.80;;;;;;;12.78;100.00;101208.00;5023336;28;20518;-72
2021/11/09 09:57:43;;;;;;;52.33;35.80;;;;;;;13.13;100.00;101262.94;5031223;28;20120;-72
2021/11/09 10:00:10;;;;;;;60.65;37.55;;;;;;;13.28;100.00;101262.66;5032241;28;20017;-73
2021/11/09 10:02:46;;;;;;;57.33;36.03;;;;;;;13.39;100.00;101263.13;5031976;28;20033;-73
2021/11/09 10:05:13;;;;;;;59.10;36.65;;;;;;;13.43;100.00;101249.44;5031820;28;20480;-72
2021/11/09 10:07:41;;;;;;;56.42;37.85;;;;;;;13.42;100.00;101234.69;5031094;28;20072;-72
2021/11/09 10:10:10;;;;;;;54.30;36.50;;;;;;;13.33;100.00;101198.88;5030568;28;20402;-72
2021/11/09 10:12:37;;;;;;;53.50;37.13;;;;;;;12.87;100.00;101099.56;5031983;28;20080;-72
2021/11/09 10:15:22;;;;;;;51.55;35.30;;;;;;;13.73;100.00;101222.84;5031782;28;20093;-75
2021/11/09 10:17:53;;;;;;;52.83;35.30;;;;;;;13.68;100.00;101195.84;5031557;28;20071;-71
2021/11/09 10:20:19;;;;;;;54.60;34.97;;;;;;;13.83;100.00;101219.78;5031699;28;20025;-72
2021/11/09 10:22:49;;;;;;;53.00;36.28;;;;;;;13.98;100.00;101214.25;5014235;28;20044;-72
2021/11/09 10:25:17;;;;;;;52.17;34.05;;;;;;;14.03;100.00;101211.78;5029504;28;20044;-71
2021/11/09 10:27:47;;;;;;;54.92;34.65;;;;;;;14.06;100.00;101215.38;5013800;28;20064;-71
2021/11/09 10:30:28;;;;;;;48.55;33.72;;;;;;;14.14;100.00;101215.63;5031895;28;20037;-75
2021/11/09 10:32:56;;;;;;;48.53;33.08;;;;;;;13.79;100.00;101140.03;5029355;28;20715;-73
2021/11/09 10:35:23;;;;;;;48.10;33.90;;;;;;;14.24;100.00;101196.97;5031488;28;20082;-73
2021/11/09 10:37:51;;;;;;;53.53;35.17;;;;;;;14.34;100.00;101211.13;5031060;28;20076;-72
2021/11/09 10:40:19;;;;;;;46.45;33.92;;;;;;;14.36;100.00;101214.66;5031171;28;20399;-74
2021/11/09 10:42:48;;;;;;;53.03;35.13;;;;;;;14.03;100.00;101184.13;5031805;28;20429;-72
2021/11/09 10:45:16;;;;;;;51.67;35.05;;;;;;;14.20;100.00;101236.63;5029050;28;20025;-72
2021/11/09 10:47:45;;;;;;;47.60;34.70;;;;;;;14.27;100.00;101242.94;5013537;28;20470;-71
2021/11/09 10:50:34;;;;;;;50.93;32.67;;;;;;;14.30;100.00;101258.59;5022258;28;20026;-73
2021/11/09 10:55:53;;;;;;;51.83;33.75;;;;;;;14.07;100.00;101226.66;5030346;28;20037;-72
2021/11/09 11:06:34;;;;;;;53.90;35.00;;;;;;;14.35;100.00;101258.75;4931772;29;20036;-71
2021/11/09 11:09:12;;;;;;;54.50;34.53;;;;;;;14.42;100.00;101254.66;4930168;29;20027;-71
2021/11/09 11:11:41;;;;;;;51.03;34.85;;;;;;;14.31;100.00;101249.09;4928936;29;20035;-70
2021/11/09 11:14:11;;;;;;;52.22;35.72;;;;;;;14.39;100.00;101260.63;4931396;29;20123;-71
2021/11/09 11:16:49;;;;;;;51.63;34.78;;;;;;;14.41;100.00;101261.56;4931198;29;20035;-71
2021/11/09 11:19:44;;;;;;;70.03;36.88;;;;;;;14.45;100.00;101259.97;4893063;29;20523;-71
2021/11/09 11:22:16;;;;;;;59.10;35.55;;;;;;;14.45;100.00;101267.75;4893378;29;20037;-73
2021/11/09 11:24:43;;;;;;;62.05;38.22;;;;;;;14.40;100.00;101278.88;4892836;29;20068;-70
2021/11/09 11:27:10;;;;;;;62.95;39.50;;;;;;;14.43;100.00;101265.13;4893570;29;20029;-71
2021/11/09 11:29:37;;;;;;;59.05;37.97;;;;;;;14.23;100.00;101205.56;4893365;29;20048;-70
2021/11/09 11:32:04;;;;;;;57.63;36.25;;;;;;;14.63;100.00;101268.38;4893264;29;20044;-71
2021/11/09 11:34:30;;;;;;;61.72;37.67;;;;;;;14.68;100.00;101266.84;4893020;29;20032;-70
2021/11/09 11:36:56;;;;;;;62.13;37.75;;;;;;;14.71;100.00;101255.66;4877510;29;20507;-72
2021/11/09 11:39:25;;;;;;;54.78;34.13;;;;;;;14.48;100.00;101215.88;4979262;28;20042;-70
2021/11/09 11:41:56;;;;;;;51.80;34.83;;;;;;;14.70;100.00;101259.09;4978097;28;20019;-71
2021/11/09 11:44:24;;;;;;;54.80;35.05;;;;;;;14.71;100.00;101253.94;4988624;28;20054;-71
2021/11/09 11:46:59;;;;;;;55.00;36.50;;;;;;;14.65;100.00;101245.06;4988637;28;20062;-71
2021/11/09 11:49:28;;;;;;;50.60;34.72;;;;;;;14.57;100.00;101244.78;4989483;28;20030;-71
2021/11/09 11:51:53;;;;;;;50.13;35.17;;;;;;;14.61;100.00;101254.44;5028121;28;20021;-70
2021/11/09 11:54:36;;;;;;;50.80;34.50;;;;;;;14.75;100.00;101262.72;5029973;28;20048;-71
2021/11/09 11:57:02;;;;;;;53.45;37.13;;;;;;;14.84;100.00;101260.44;5030517;28;20025;-71
2021/11/09 11:59:28;;;;;;;53.30;35.70;;;;;;;14.84;100.00;101262.13;4995080;28;20034;-70
2021/11/09 12:02:00;;;;;;;68.70;42.58;;;;;;;14.92;100.00;101262.41;5028467;28;20034;-71
2021/11/09 12:04:40;;;;;;;55.83;40.38;;;;;;;14.92;100.00;101271.06;5030191;28;20422;-75
2021/11/09 12:07:15;;;;;;;50.33;36.28;;;;;;;14.94;100.00;101264.22;5027099;28;20100;-71
2021/11/09 12:09:43;;;;;;;58.35;38.78;;;;;;;14.94;100.00;101269.41;5028850;28;20060;-71
2021/11/09 12:12:11;;;;;;;52.17;35.15;;;;;;;14.85;100.00;101279.50;5029662;28;20033;-70
2021/11/09 12:14:57;;;;;;;51.05;35.67;;;;;;;14.54;100.00;101250.75;5029438;28;20025;-71
2021/11/09 12:17:44;;;;;;;52.45;36.50;;;;;;;14.70;100.00;101279.88;5029073;28;20033;-70
2021/11/09 12:20:15;;;;;;;49.10;34.72;;;;;;;14.51;100.00;101297.41;4994237;28;20111;-70
2021/11/09 12:22:52;;;;;;;50.95;36.10;;;;;;;14.01;100.00;101206.53;5023454;28;20025;-71
2021/11/09 12:25:21;;;;;;;51.28;34.53;;;;;;;14.47;100.00;101292.09;5027355;28;20026;-71
2021/11/09 12:27:46;;;;;;;50.58;34.58;;;;;;;14.53;100.00;101297.50;5030728;28;20091;-68
2021/11/09 12:30:31;;;;;;;53.70;36.78;;;;;;;14.48;100.00;101301.63;5032222;28;20049;-70
2021/11/09 12:33:16;;;;;;;48.67;33.83;;;;;;;14.38;100.00;101314.31;5031769;28;20072;-71
2021/11/09 12:35:47;;;;;;;50.83;36.25;;;;;;;14.40;100.00;101309.16;5025153;28;20021;-71
2021/11/09 12:38:36;;;;;;;52.83;35.17;;;;;;;14.38;100.00;101297.81;5017009;28;20052;-74
2021/11/09 12:41:11;;;;;;;49.97;35.40;;;;;;;14.41;100.00;101316.13;5016479;28;20029;-73
2021/11/09 12:43:55;;;;;;;50.28;33.92;;;;;;;14.31;100.00;101296.72;5016259;28;20022;-68
2021/11/09 12:46:37;;;;;;;51.17;35.63;;;;;;;14.25;100.00;101314.69;5013885;28;20026;-72
2021/11/09 12:49:14;;;;;;;48.63;35.55;;;;;;;14.20;100.00;101309.34;5015837;28;20044;-71
2021/11/09 12:51:46;;;;;;;55.28;37.67;;;;;;;14.20;100.00;101332.69;5015772;28;20037;-69
2021/11/09 12:54:15;;;;;;;53.75;38.10;;;;;;;14.17;100.00;101331.75;5016519;28;20041;-72
2021/11/09 12:56:42;;;;;;;52.05;35.60;;;;;;;14.05;100.00;101339.94;5014500;28;20022;-67
2021/11/09 13:09:48;;;;;;;53.75;36.00;;;;;;;13.94;100.00;101355.13;5014704;28;20034;-70
2021/11/09 13:12:34;;;;;;;59.75;36.08;;;;;;;13.79;100.00;101345.03;4992497;28;20042;-69
2021/11/09 13:15:13;;;;;;;40.30;26.52;;;;;;;13.83;100.00;101379.78;4991394;28;20037;-73
2021/11/09 13:17:43;;;;;;;32.40;20.80;;;;;;;13.58;100.00;101389.22;4991812;28;20583;-68
2021/11/09 13:22:53;;;;;;;21.73;14.38;;;;;;;13.41;100.00;101406.72;5004855;28;20125;-69
2021/11/09 13:25:37;;;;;;;25.02;16.08;;;;;;;12.43;100.00;101249.78;5010548;28;20512;-70
2021/11/09 13:28:20;;;;;;;40.33;25.65;;;;;;;13.27;100.00;101407.00;5008908;28;20044;-69
2021/11/09 13:31:02;;;;;;;30.23;20.15;;;;;;;13.18;100.00;101403.16;5006432;28;20535;-70
2021/11/09 13:33:29;;;;;;;22.20;13.98;;;;;;;13.04;100.00;101400.84;4990719;28;20444;-69
2021/11/09 13:35:56;;;;;;;16.55;11.55;;;;;;;12.28;100.00;101273.31;4991572;28;20035;-70
2021/11/09 13:38:24;;;;;;;18.25;10.77;;;;;;;13.13;100.00;101420.22;4976873;28;20068;-70
2021/11/09 13:40:58;;;;;;;17.58;9.32;;;;;;;13.08;100.00;101425.22;4993794;28;20030;-70
2021/11/09 13:43:35;;;;;;;22.77;13.93;;;;;;;12.98;100.00;101423.94;5016264;28;20041;-70
2021/11/09 13:46:08;;;;;;;13.38;7.57;;;;;;;12.59;100.00;101374.78;5032465;28;20044;-70
2021/11/09 13:48:36;;;;;;;12.57;7.15;;;;;;;12.91;100.00;101434.84;5024066;28;20030;-72
2021/11/09 13:51:05;;;;;;;14.88;7.53;;;;;;;12.57;100.00;101395.44;5012167;28;20113;-72